CDT,Max TemperatureF,Mean TemperatureF,Min TemperatureF,Max Dew PointF,MeanDew PointF,Min DewpointF,Max Humidity, Mean Humidity, Min Humidity, Max Sea Level PressureIn, Mean Sea Level PressureIn, Min Sea Level PressureIn, Max VisibilityMiles, Mean VisibilityMiles, Min VisibilityMiles, Max Wind SpeedMPH, Mean Wind SpeedMPH, Max Gust SpeedMPH,PrecipitationIn, CloudCover, Events, WindDirDegrees
2013-6-1,90,82,73,74,72,69,100,78,55,29.96,29.94,29.88,10,10,10,15,6,22,0.00,3,,163
2013-6-2,87,78,68,75,72,66,100,83,65,30.04,29.95,29.87,10,7,1,20,5,26,2.18,6,Rain-Thunderstorm,55
2013-6-3,89,81,72,73,71,69,100,76,52,29.94,29.89,29.84,10,10,10,8,2,12,0.00,4,,17
2013-6-4,91,82,72,74,72,70,100,76,52,29.94,29.90,29.84,10,10,6,12,4,16,0.00,3,,89
2013-6-5,91,82,73,75,73,72,100,80,59,29.92,29.87,29.79,10,10,10,13,5,17,0.00,3,,88
2013-6-6,88,79,69,74,71,68,100,78,55,29.88,29.82,29.74,10,9,2,26,6,32,0.43,4,Rain-Thunderstorm,253
2013-6-7,87,79,70,72,69,66,100,76,51,29.90,29.85,29.80,10,10,8,12,5,32,0.00,4,Rain-Thunderstorm,286
2013-6-8,88,79,69,71,69,68,100,77,53,29.96,29.93,29.89,10,9,6,21,4,33,T,3,,124
2013-6-9,89,80,70,74,71,69,100,76,52,29.97,29.94,29.88,10,9,1,23,5,31,0.59,4,Rain-Thunderstorm,125
2013-6-10,90,81,72,76,73,71,100,80,59,30.03,30.00,29.96,10,10,10,14,5,17,0.04,4,Rain-Thunderstorm,217
2013-6-11,93,84,75,77,74,69,100,75,49,30.09,30.05,30.00,10,8,4,14,3,17,T,4,Rain,222
2013-6-12,93,84,74,76,73,68,94,71,47,30.10,30.05,30.00,10,10,8,9,4,12,0.00,2,,241
2013-6-13,93,84,74,76,74,69,100,75,49,30.07,29.99,29.91,10,10,8,11,4,17,0.00,2,,282
2013-6-14,95,85,74,77,74,69,91,72,52,29.96,29.91,29.86,10,10,9,22,6,35,0.00,2,,325
2013-6-15,94,82,70,75,70,66,93,70,46,30.01,29.97,29.92,10,10,10,18,5,24,0.00,2,,68
2013-6-16,93,85,76,77,74,71,94,73,52,30.05,30.00,29.96,10,10,7,14,7,24,0.01,3,Rain,243
2013-6-17,93,84,74,74,72,67,94,69,44,30.03,29.97,29.92,10,10,10,17,9,22,0.00,2,,231
2013-6-18,91,82,72,73,71,69,93,71,49,30.02,29.96,29.88,10,10,10,22,8,30,0.06,3,Rain-Thunderstorm,238
2013-6-19,83,78,72,74,72,69,94,82,69,30.07,30.01,29.95,10,9,2,12,2,14,0.74,5,Rain-Thunderstorm,291
2013-6-20,90,81,72,75,72,68,100,77,53,30.12,30.06,30.02,10,9,4,15,4,22,0.00,2,,286
2013-6-21,93,82,71,75,72,70,100,75,49,30.12,30.08,30.04,10,10,10,15,3,28,0.00,1,,27
2013-6-22,92,82,72,75,72,68,94,73,52,30.10,30.05,29.99,10,9,6,17,5,23,0.00,1,Thunderstorm,106
2013-6-23,92,82,71,75,72,69,100,75,49,30.07,30.04,29.99,10,8,0,30,4,36,1.40,3,Fog-Rain-Thunderstorm,77
2013-6-24,88,80,72,75,73,69,100,78,55,30.13,30.09,30.04,10,9,4,23,3,32,0.77,3,Rain-Thunderstorm,186
2013-6-25,91,82,73,75,71,65,94,69,44,30.09,30.05,29.99,10,10,10,13,5,20,0.00,2,,188
2013-6-26,92,82,72,74,72,69,93,71,49,30.06,30.01,29.95,10,10,10,18,5,25,0.00,2,,229
2013-6-27,93,84,75,77,74,72,94,73,52,30.03,29.98,29.92,10,10,10,10,4,,0.00,1,,266
2013-6-28,93,85,77,77,75,71,97,75,52,29.96,29.89,29.78,10,10,10,15,9,17,0.00,2,,255
2013-6-29,88,80,72,79,75,71,94,81,68,29.83,29.78,29.70,10,9,2,26,7,31,0.25,4,Rain-Thunderstorm,237
2013-6-30,90,81,72,75,67,58,100,67,34,29.82,29.77,29.73,10,10,6,29,5,22,0.00,1,,295